createdAt,value
2022-11-03T00:01:21.551Z,-59
2022-11-03T00:08:53.895Z,-59
2022-11-03T00:16:26.175Z,-59
2022-11-03T00:23:58.455Z,-59
2022-11-03T00:31:30.723Z,-59
2022-11-03T00:39:03.001Z,-59
2022-11-03T00:46:35.626Z,-60
2022-11-03T00:54:08.196Z,-59
2022-11-03T01:01:45.313Z,-59
2022-11-03T01:09:19.184Z,-59
2022-11-03T01:16:51.456Z,-60
2022-11-03T01:24:23.763Z,-59
2022-11-03T01:31:56.036Z,-60
2022-11-03T01:39:28.302Z,-59
2022-11-03T01:47:00.574Z,-59
2022-11-03T01:54:32.839Z,-59
2022-11-03T02:02:05.216Z,-59
2022-11-03T02:09:37.580Z,-59
2022-11-03T02:17:09.857Z,-59
2022-11-03T02:24:42.126Z,-59
2022-11-03T02:32:14.403Z,-59
2022-11-03T02:39:46.644Z,-59
2022-11-03T02:47:19.064Z,-58
2022-11-03T02:54:51.316Z,-58
2022-11-03T03:02:23.607Z,-58
2022-11-03T03:09:55.914Z,-60
2022-11-03T03:17:28.174Z,-59
2022-11-03T03:25:00.440Z,-60
2022-11-03T03:32:32.716Z,-60
2022-11-03T03:40:04.975Z,-60
2022-11-03T03:47:37.255Z,-60
2022-11-03T03:55:09.524Z,-60
2022-11-03T04:02:41.795Z,-60
2022-11-03T04:10:14.070Z,-61
2022-11-03T04:25:23.538Z,-60
2022-11-03T04:32:55.795Z,-60
2022-11-03T04:40:28.054Z,-60
2022-11-03T04:48:00.361Z,-60
2022-11-03T04:55:32.630Z,-60
2022-11-03T05:03:04.896Z,-59
2022-11-03T05:10:37.168Z,-60
2022-11-03T05:16:19.436Z,-59
2022-11-03T05:17:06.700Z,-59
2022-11-03T05:17:53.993Z,-60
2022-11-03T05:18:41.277Z,-60
2022-11-03T05:19:28.555Z,-59
2022-11-03T05:20:15.895Z,-59
2022-11-03T05:21:03.153Z,-59
2022-11-03T05:21:50.429Z,-59
2022-11-03T05:22:37.709Z,-61
2022-11-03T05:23:25.018Z,-59
2022-11-03T05:24:12.351Z,-60
2022-11-03T05:24:59.711Z,-60
2022-11-03T05:25:47.007Z,-59
2022-11-03T05:26:34.297Z,-59
2022-11-03T05:27:21.587Z,-59
2022-11-03T05:28:08.961Z,-59
2022-11-03T05:28:56.476Z,-60
2022-11-03T05:29:43.773Z,-59
2022-11-03T05:30:31.075Z,-59
2022-11-03T05:31:18.348Z,-59
2022-11-03T05:32:05.651Z,-59
2022-11-03T05:32:52.917Z,-59
2022-11-03T05:33:40.201Z,-59
2022-11-03T05:34:27.507Z,-59
2022-11-03T05:35:14.783Z,-59
2022-11-03T05:36:02.050Z,-60
2022-11-03T05:36:49.366Z,-60
2022-11-03T05:37:36.656Z,-59
2022-11-03T05:38:23.935Z,-59
2022-11-03T05:39:11.259Z,-59
2022-11-03T05:39:58.521Z,-59
2022-11-03T05:40:45.783Z,-59
2022-11-03T05:41:33.114Z,-60
2022-11-03T05:42:20.377Z,-60
2022-11-03T05:43:12.089Z,-59
2022-11-03T05:43:59.577Z,-59
2022-11-03T05:44:46.992Z,-60
2022-11-03T05:45:34.273Z,-59
2022-11-03T05:46:21.547Z,-59
2022-11-03T05:47:09.134Z,-59
2022-11-03T05:47:56.414Z,-59
2022-11-03T05:48:43.682Z,-59
2022-11-03T05:49:31.088Z,-59
2022-11-03T05:50:18.352Z,-59
2022-11-03T05:51:05.620Z,-58
2022-11-03T05:51:52.985Z,-58
2022-11-03T05:52:40.266Z,-59
2022-11-03T05:53:27.552Z,-58
2022-11-03T05:54:18.578Z,-59
2022-11-03T05:55:07.058Z,-59
2022-11-03T05:55:54.395Z,-60
2022-11-03T05:56:41.660Z,-58
2022-11-03T05:57:28.952Z,-60
2022-11-03T05:58:16.359Z,-58
2022-11-03T05:59:03.619Z,-58
2022-11-03T05:59:50.893Z,-59
2022-11-03T06:00:38.311Z,-60
2022-11-03T06:01:25.659Z,-60
2022-11-03T06:02:13.093Z,-59
2022-11-03T06:03:00.584Z,-58
2022-11-03T06:03:47.897Z,-59
2022-11-03T06:04:35.172Z,-60
2022-11-03T06:05:22.563Z,-59
2022-11-03T06:06:09.823Z,-58
2022-11-03T06:06:57.080Z,-60
2022-11-03T06:07:44.487Z,-60
2022-11-03T06:08:31.760Z,-61
2022-11-03T06:09:19.039Z,-55
2022-11-03T06:10:06.459Z,-58
2022-11-03T06:10:53.772Z,-58
2022-11-03T06:11:41.045Z,-57
2022-11-03T06:12:28.467Z,-58
2022-11-03T06:13:15.747Z,-58
2022-11-03T06:14:03.028Z,-58
2022-11-03T06:14:50.428Z,-58
2022-11-03T06:15:37.739Z,-60
2022-11-03T06:16:25.022Z,-60
2022-11-03T06:17:12.423Z,-58
2022-11-03T06:17:59.755Z,-59
2022-11-03T06:18:47.020Z,-59
2022-11-03T06:19:34.455Z,-59
2022-11-03T06:20:21.736Z,-60
2022-11-03T06:21:09.002Z,-59
2022-11-03T06:21:56.431Z,-58
2022-11-03T06:22:43.692Z,-60
2022-11-03T06:23:30.967Z,-57
2022-11-03T06:24:18.400Z,-58
2022-11-03T06:25:05.662Z,-58
2022-11-03T06:25:52.929Z,-58
2022-11-03T06:26:40.372Z,-58
2022-11-03T06:27:27.663Z,-58
2022-11-03T06:28:14.936Z,-58
2022-11-03T06:29:02.373Z,-58
2022-11-03T06:29:49.647Z,-59
2022-11-03T06:30:36.965Z,-58
2022-11-03T06:31:24.347Z,-58
2022-11-03T06:32:11.622Z,-59
2022-11-03T06:32:58.936Z,-58
2022-11-03T06:33:46.351Z,-59
2022-11-03T06:34:33.634Z,-59
2022-11-03T06:35:20.911Z,-59
2022-11-03T06:36:08.333Z,-59
2022-11-03T06:36:55.632Z,-59
2022-11-03T06:37:42.930Z,-58
2022-11-03T06:38:30.333Z,-58
2022-11-03T06:39:17.607Z,-58
2022-11-03T06:40:04.875Z,-60
2022-11-03T06:40:52.316Z,-59
2022-11-03T06:41:39.593Z,-59
2022-11-03T06:42:31.771Z,-59
2022-11-03T06:43:19.408Z,-59
2022-11-03T06:44:06.807Z,-59
2022-11-03T06:44:54.133Z,-59
2022-11-03T06:45:41.408Z,-58
2022-11-03T06:46:28.803Z,-58
2022-11-03T06:47:16.083Z,-59
2022-11-03T06:48:03.361Z,-59
2022-11-03T06:48:50.750Z,-60
2022-11-03T06:49:38.023Z,-60
2022-11-03T06:50:25.334Z,-59
2022-11-03T06:51:12.696Z,-59
2022-11-03T06:51:59.979Z,-59
2022-11-03T06:52:50.235Z,-58
2022-11-03T06:53:37.533Z,-59
2022-11-03T06:54:24.967Z,-58
2022-11-03T06:55:15.634Z,-57
2022-11-03T06:56:04.455Z,-58
2022-11-03T06:56:51.862Z,-58
2022-11-03T06:57:39.210Z,-60
2022-11-03T06:58:26.522Z,-60
2022-11-03T06:59:13.939Z,-61
2022-11-03T07:00:20.268Z,-58
2022-11-03T07:01:02.975Z,-58
2022-11-03T07:01:50.780Z,-60
2022-11-03T07:02:38.320Z,-59
2022-11-03T07:03:25.828Z,-59
2022-11-03T07:04:13.119Z,-58
2022-11-03T07:05:00.691Z,-58
2022-11-03T07:05:48.037Z,-61
2022-11-03T07:06:35.375Z,-60
2022-11-03T07:07:22.695Z,-59
2022-11-03T07:08:09.996Z,-61
2022-11-03T07:08:57.343Z,-59
2022-11-03T07:09:44.630Z,-60
2022-11-03T07:10:31.948Z,-60
2022-11-03T07:11:19.240Z,-59
2022-11-03T07:12:06.616Z,-61
2022-11-03T07:12:53.888Z,-60
2022-11-03T07:13:41.180Z,-59
2022-11-03T07:14:28.487Z,-59
2022-11-03T07:15:15.797Z,-60
2022-11-03T07:16:03.080Z,-62
2022-11-03T07:16:50.394Z,-61
2022-11-03T07:17:37.675Z,-62
2022-11-03T07:18:25.022Z,-61
2022-11-03T07:19:12.307Z,-62
2022-11-03T07:19:59.630Z,-62
2022-11-03T07:20:47.007Z,-62
2022-11-03T07:21:34.340Z,-61
2022-11-03T07:22:21.630Z,-61
2022-11-03T07:23:08.967Z,-61
2022-11-03T07:23:56.289Z,-62
2022-11-03T07:24:43.556Z,-62
2022-11-03T07:25:30.826Z,-61
2022-11-03T07:26:18.200Z,-61
2022-11-03T07:27:05.483Z,-60
2022-11-03T07:27:52.761Z,-60
2022-11-03T07:28:40.150Z,-60
2022-11-03T07:29:27.448Z,-61
2022-11-03T07:30:14.748Z,-63
2022-11-03T07:31:02.077Z,-63
2022-11-03T07:31:49.454Z,-62
2022-11-03T07:32:36.764Z,-62
2022-11-03T07:33:24.133Z,-61
2022-11-03T07:34:11.469Z,-60
2022-11-03T07:34:58.796Z,-62
2022-11-03T07:36:14.827Z,-61
2022-11-03T07:36:43.409Z,-63
2022-11-03T07:37:30.765Z,-63
2022-11-03T07:38:18.185Z,-65
2022-11-03T07:39:05.575Z,-64
2022-11-03T07:39:52.902Z,-64
2022-11-03T07:40:40.235Z,-64
2022-11-03T07:41:31.129Z,-65
2022-11-03T07:42:21.444Z,-62
2022-11-03T07:43:08.836Z,-64
2022-11-03T07:43:56.144Z,-61
2022-11-03T07:44:43.454Z,-62
2022-11-03T07:45:30.844Z,-62
2022-11-03T07:46:18.134Z,-62
2022-11-03T07:47:05.473Z,-62
2022-11-03T07:47:52.953Z,-62
2022-11-03T07:48:40.246Z,-62
2022-11-03T07:49:27.605Z,-62
2022-11-03T07:50:15.026Z,-61
2022-11-03T07:51:02.406Z,-60
2022-11-03T07:51:50.119Z,-63
2022-11-03T07:52:37.404Z,-63
2022-11-03T07:53:26.105Z,-62
2022-11-03T07:54:13.608Z,-63
2022-11-03T07:55:01.031Z,-62
2022-11-03T07:55:48.398Z,-62
2022-11-03T07:56:35.834Z,-61
2022-11-03T07:57:23.194Z,-61
2022-11-03T07:58:10.537Z,-62
2022-11-03T07:58:57.850Z,-63
2022-11-03T07:59:45.304Z,-62
2022-11-03T08:00:32.599Z,-64
2022-11-03T08:01:19.927Z,-60
2022-11-03T08:02:07.438Z,-61
2022-11-03T08:02:54.864Z,-59
2022-11-03T08:03:42.251Z,-60
2022-11-03T08:04:29.619Z,-59
2022-11-03T08:05:16.983Z,-59
2022-11-03T08:06:06.139Z,-60
2022-11-03T08:06:56.375Z,-60
2022-11-03T08:07:43.759Z,-59
2022-11-03T08:08:31.036Z,-59
2022-11-03T08:09:18.347Z,-60
2022-11-03T08:10:05.746Z,-59
2022-11-03T08:10:53.051Z,-60
2022-11-03T08:11:40.435Z,-60
2022-11-03T08:12:27.837Z,-60
2022-11-03T08:13:15.137Z,-59
2022-11-03T08:14:02.424Z,-60
2022-11-03T08:14:49.974Z,-59
2022-11-03T08:15:37.267Z,-61
2022-11-03T08:16:25.082Z,-60
2022-11-03T08:17:12.405Z,-60
2022-11-03T08:18:00.223Z,-63
2022-11-03T08:18:47.515Z,-60
2022-11-03T08:19:34.832Z,-59
2022-11-03T08:20:22.195Z,-62
2022-11-03T08:21:09.709Z,-63
2022-11-03T08:21:57.009Z,-62
2022-11-03T08:22:59.184Z,-60
2022-11-03T08:23:46.110Z,-61
2022-11-03T08:24:34.759Z,-62
2022-11-03T08:25:22.212Z,-62
2022-11-03T08:26:09.588Z,-61
2022-11-03T08:26:56.889Z,-62
2022-11-03T08:27:44.353Z,-64
2022-11-03T08:28:31.639Z,-61
2022-11-03T08:29:18.949Z,-63
2022-11-03T08:30:06.352Z,-64
2022-11-03T08:30:53.643Z,-63
2022-11-03T08:31:40.907Z,-62
2022-11-03T08:32:28.345Z,-63
2022-11-03T08:33:15.653Z,-63
2022-11-03T08:34:03.008Z,-63
2022-11-03T08:34:50.388Z,-63
2022-11-03T08:35:37.691Z,-64
2022-11-03T08:36:25.031Z,-65
2022-11-03T08:37:12.417Z,-65
2022-11-03T08:37:59.788Z,-62
2022-11-03T08:38:47.063Z,-61
2022-11-03T08:39:34.575Z,-65
2022-11-03T08:40:21.968Z,-64
2022-11-03T08:41:09.299Z,-64
2022-11-03T08:41:56.681Z,-64
2022-11-03T08:42:43.957Z,-63
2022-11-03T08:43:31.250Z,-65
2022-11-03T08:44:18.678Z,-65
2022-11-03T08:45:05.958Z,-65
2022-11-03T08:45:53.377Z,-64
2022-11-03T08:46:40.663Z,-63
2022-11-03T08:47:27.944Z,-61
2022-11-03T08:48:15.691Z,-65
2022-11-03T08:49:02.969Z,-63
2022-11-03T08:49:50.350Z,-60
2022-11-03T08:50:37.648Z,-63
2022-11-03T08:51:25.013Z,-62
2022-11-03T08:52:12.372Z,-61
2022-11-03T08:52:59.684Z,-61
2022-11-03T08:53:46.979Z,-60
2022-11-03T08:54:34.259Z,-63
2022-11-03T08:55:21.602Z,-62
2022-11-03T08:56:12.113Z,-62
2022-11-03T08:57:00.749Z,-62
2022-11-03T08:57:48.147Z,-64
2022-11-03T08:58:35.454Z,-64
2022-11-03T08:59:22.776Z,-61
2022-11-03T09:00:10.172Z,-63
2022-11-03T09:00:57.506Z,-63
2022-11-03T09:01:44.933Z,-62
2022-11-03T09:02:32.404Z,-63
2022-11-03T09:03:19.802Z,-63
2022-11-03T09:04:07.258Z,-65
2022-11-03T09:04:54.639Z,-65
2022-11-03T09:05:41.956Z,-62
2022-11-03T09:06:29.257Z,-63
2022-11-03T09:07:16.805Z,-64
2022-11-03T09:10:55.998Z,-63
2022-11-03T09:11:43.431Z,-63
2022-11-03T09:12:30.721Z,-62
2022-11-03T09:13:18.031Z,-63
2022-11-03T09:14:05.439Z,-61
2022-11-03T09:14:52.734Z,-64
2022-11-03T09:15:40.036Z,-61
2022-11-03T09:16:27.474Z,-63
2022-11-03T09:17:14.749Z,-63
2022-11-03T09:18:02.153Z,-64
2022-11-03T09:18:49.502Z,-64
2022-11-03T09:19:37.004Z,-64
2022-11-03T09:20:24.373Z,-63
2022-11-03T09:21:11.746Z,-62
2022-11-03T09:21:59.043Z,-61
2022-11-03T09:22:46.569Z,-62
2022-11-03T09:23:33.944Z,-64
2022-11-03T09:24:21.245Z,-61
2022-11-03T09:25:08.567Z,-62
2022-11-03T09:25:55.985Z,-63
2022-11-03T09:26:43.271Z,-62
2022-11-03T09:27:30.573Z,-63
2022-11-03T09:28:20.917Z,-63
2022-11-03T09:29:08.198Z,-64
2022-11-03T09:30:12.345Z,-61
2022-11-03T09:30:52.840Z,-60
2022-11-03T09:31:40.204Z,-60
2022-11-03T09:32:27.512Z,-60
2022-11-03T09:33:14.868Z,-61
2022-11-03T09:34:02.212Z,-61
2022-11-03T09:34:49.507Z,-62
2022-11-03T09:35:36.865Z,-65
2022-11-03T09:36:24.239Z,-63
2022-11-03T09:37:11.570Z,-62
2022-11-03T09:37:58.847Z,-64
2022-11-03T09:38:46.254Z,-64
2022-11-03T09:39:33.564Z,-64
2022-11-03T09:40:20.866Z,-64
2022-11-03T09:41:18.725Z,-64
2022-11-03T09:42:05.739Z,-63
2022-11-03T09:42:53.084Z,-64
2022-11-03T09:43:40.429Z,-62
2022-11-03T09:44:27.715Z,-63
2022-11-03T09:45:15.196Z,-65
2022-11-03T09:46:02.515Z,-66
2022-11-03T09:46:53.769Z,-64
2022-11-03T09:47:44.445Z,-63
2022-11-03T09:48:31.857Z,-67
2022-11-03T09:49:19.172Z,-65
2022-11-03T09:50:06.586Z,-64
2022-11-03T09:50:53.909Z,-64
2022-11-03T09:51:41.205Z,-63
2022-11-03T09:52:28.592Z,-65
2022-11-03T09:53:15.902Z,-61
2022-11-03T09:54:03.231Z,-63
2022-11-03T09:54:50.566Z,-63
2022-11-03T09:55:38.151Z,-64
2022-11-03T09:56:25.839Z,-63
2022-11-03T09:57:13.179Z,-62
2022-11-03T09:58:00.490Z,-62
2022-11-03T09:58:53.033Z,-61
2022-11-03T09:59:41.695Z,-62
2022-11-03T10:00:29.075Z,-63
2022-11-03T10:01:17.019Z,-63
2022-11-03T10:02:04.507Z,-62
2022-11-03T10:02:51.954Z,-62
2022-11-03T10:03:39.308Z,-63
2022-11-03T10:04:26.619Z,-64
2022-11-03T10:05:14.016Z,-62
2022-11-03T10:06:01.299Z,-63
2022-11-03T10:06:48.590Z,-64
2022-11-03T10:07:36.041Z,-63
2022-11-03T10:08:23.324Z,-63
2022-11-03T10:09:10.628Z,-63
2022-11-03T10:09:58.074Z,-64
2022-11-03T10:10:45.358Z,-66
2022-11-03T10:11:32.647Z,-62
2022-11-03T10:12:20.120Z,-62
2022-11-03T10:13:07.833Z,-61
2022-11-03T10:13:55.436Z,-65
2022-11-03T10:14:42.900Z,-61
2022-11-03T10:15:30.187Z,-64
2022-11-03T10:16:17.484Z,-64
2022-11-03T10:17:04.908Z,-65
2022-11-03T10:17:52.253Z,-62
2022-11-03T10:18:39.534Z,-64
2022-11-03T10:19:27.010Z,-66
2022-11-03T10:20:14.335Z,-65
2022-11-03T10:21:01.611Z,-62
2022-11-03T10:21:49.044Z,-64
2022-11-03T10:22:40.856Z,-65
2022-11-03T10:23:28.519Z,-62
2022-11-03T10:24:15.970Z,-61
2022-11-03T10:25:03.301Z,-59
2022-11-03T10:25:50.585Z,-62
2022-11-03T10:26:38.031Z,-63
2022-11-03T10:27:25.341Z,-60
2022-11-03T10:28:14.609Z,-62
2022-11-03T10:29:02.411Z,-62
2022-11-03T10:29:56.387Z,-61
2022-11-03T10:30:58.007Z,-63
2022-11-03T10:31:42.753Z,-63
2022-11-03T10:32:30.194Z,-64
2022-11-03T10:33:17.482Z,-60
2022-11-03T10:34:04.752Z,-60
2022-11-03T10:34:52.185Z,-59
2022-11-03T10:35:39.463Z,-60
2022-11-03T10:36:26.772Z,-59
2022-11-03T10:37:14.188Z,-59
2022-11-03T10:38:01.550Z,-60
2022-11-03T10:38:48.923Z,-61
2022-11-03T10:39:36.347Z,-66
2022-11-03T10:40:46.766Z,-63
2022-11-03T10:41:20.938Z,-59
2022-11-03T10:42:08.391Z,-64
2022-11-03T10:42:55.728Z,-60
2022-11-03T10:43:43.054Z,-61
2022-11-03T10:44:30.458Z,-65
2022-11-03T10:45:17.789Z,-61
2022-11-03T10:46:08.100Z,-63
2022-11-03T10:46:55.454Z,-61
2022-11-03T10:47:42.909Z,-61
2022-11-03T10:48:30.249Z,-62
2022-11-03T10:49:17.551Z,-63
2022-11-03T10:50:04.962Z,-63
2022-11-03T10:50:52.252Z,-65
2022-11-03T10:51:39.617Z,-66
2022-11-03T10:52:27.001Z,-63
2022-11-03T10:53:14.448Z,-63
2022-11-03T10:54:01.758Z,-62
2022-11-03T10:54:49.188Z,-65
2022-11-03T10:55:36.532Z,-63
2022-11-03T10:56:23.815Z,-63
2022-11-03T10:57:11.397Z,-64
2022-11-03T10:57:58.683Z,-63
2022-11-03T10:58:46.040Z,-64
2022-11-03T10:59:33.430Z,-61
2022-11-03T11:00:20.804Z,-64
2022-11-03T11:01:08.210Z,-63
2022-11-03T11:01:55.717Z,-62
2022-11-03T11:02:43.139Z,-63
2022-11-03T11:03:30.500Z,-61
2022-11-03T11:04:17.988Z,-61
2022-11-03T11:05:05.324Z,-61
2022-11-03T11:05:52.623Z,-61
2022-11-03T11:06:40.042Z,-61
2022-11-03T11:07:27.419Z,-61
2022-11-03T11:08:14.889Z,-62
2022-11-03T11:09:02.305Z,-64
2022-11-03T11:16:34.663Z,-61
2022-11-03T11:24:07.019Z,-65
2022-11-03T11:31:39.343Z,-68
2022-11-03T11:39:11.686Z,-62
2022-11-03T11:46:43.980Z,-62
2022-11-03T11:53:31.490Z,-62
2022-11-03T11:54:19.202Z,-61
2022-11-03T11:55:06.713Z,-61
2022-11-03T11:55:54.045Z,-64
2022-11-03T11:56:41.357Z,-61
2022-11-03T11:57:28.682Z,-64
2022-11-03T11:58:15.991Z,-60
2022-11-03T11:59:05.987Z,-61
2022-11-03T11:59:53.251Z,-62
2022-11-03T12:00:40.629Z,-62
2022-11-03T12:01:28.009Z,-63
2022-11-03T12:02:15.407Z,-63
2022-11-03T12:03:02.850Z,-62
2022-11-03T12:03:50.312Z,-60
2022-11-03T12:04:37.685Z,-60
2022-11-03T12:05:25.094Z,-63
2022-11-03T12:06:12.403Z,-63
2022-11-03T12:06:59.691Z,-63
2022-11-03T12:07:47.350Z,-64
2022-11-03T12:08:34.683Z,-65
2022-11-03T12:09:22.149Z,-63
2022-11-03T12:10:09.500Z,-65
2022-11-03T12:10:56.861Z,-67
2022-11-03T12:11:46.016Z,-62
2022-11-03T12:12:34.305Z,-62
2022-11-03T12:13:21.705Z,-64
2022-11-03T12:14:08.991Z,-61
2022-11-03T12:14:56.302Z,-64
2022-11-03T12:15:43.874Z,-61
2022-11-03T12:16:31.185Z,-65
2022-11-03T12:17:18.497Z,-63
2022-11-03T12:18:06.053Z,-63
2022-11-03T12:18:53.602Z,-63
2022-11-03T12:19:41.074Z,-62
2022-11-03T12:20:28.378Z,-64
2022-11-03T12:21:15.688Z,-64
2022-11-03T12:22:03.189Z,-63
2022-11-03T12:22:50.578Z,-63
2022-11-03T12:23:37.883Z,-64
2022-11-03T12:24:25.189Z,-62
2022-11-03T12:25:12.521Z,-62
2022-11-03T12:25:59.817Z,-61
2022-11-03T12:26:47.169Z,-62
2022-11-03T12:27:34.503Z,-64
2022-11-03T12:28:21.890Z,-61
2022-11-03T12:29:09.201Z,-61
2022-11-03T12:29:56.605Z,-60
2022-11-03T12:30:43.915Z,-61
2022-11-03T12:31:33.053Z,-61
2022-11-03T12:32:33.588Z,-61
2022-11-03T12:33:20.726Z,-60
2022-11-03T12:34:08.039Z,-61
2022-11-03T12:34:55.338Z,-61
2022-11-03T12:35:42.639Z,-64
2022-11-03T12:36:30.087Z,-61
2022-11-03T12:37:17.376Z,-61
2022-11-03T12:38:04.692Z,-62
2022-11-03T12:38:52.114Z,-65
2022-11-03T12:39:39.392Z,-61
2022-11-03T12:40:26.793Z,-61
2022-11-03T12:41:14.169Z,-61
2022-11-03T12:42:01.446Z,-62
2022-11-03T12:42:48.729Z,-62
2022-11-03T12:43:36.123Z,-62
2022-11-03T12:44:23.546Z,-61
2022-11-03T12:45:10.858Z,-63
2022-11-03T12:45:58.251Z,-65
2022-11-03T12:46:45.544Z,-63
2022-11-03T12:47:32.807Z,-64
2022-11-03T12:48:20.287Z,-63
2022-11-03T12:49:07.693Z,-60
2022-11-03T12:49:55.014Z,-63
2022-11-03T12:50:42.471Z,-61
2022-11-03T12:51:29.751Z,-62
2022-11-03T12:52:17.091Z,-62
2022-11-03T12:53:04.860Z,-62
2022-11-03T12:53:52.518Z,-61
2022-11-03T12:54:39.812Z,-59
2022-11-03T12:56:15.404Z,-64
2022-11-03T12:57:02.695Z,-61
2022-11-03T12:57:49.991Z,-60
2022-11-03T12:58:37.339Z,-63
2022-11-03T12:59:24.813Z,-62
2022-11-03T13:00:12.141Z,-63
2022-11-03T13:01:01.782Z,-61
2022-11-03T13:01:49.679Z,-64
2022-11-03T13:02:37.207Z,-62
2022-11-03T13:03:24.720Z,-62
2022-11-03T13:04:12.014Z,-62
2022-11-03T13:04:59.594Z,-60
2022-11-03T13:05:46.936Z,-62
2022-11-03T13:06:34.282Z,-63
2022-11-03T13:07:26.825Z,-63
2022-11-03T13:09:09.963Z,-62
2022-11-03T13:09:57.387Z,-64
2022-11-03T13:10:44.649Z,-62
2022-11-03T13:11:31.999Z,-64
2022-11-03T13:12:19.443Z,-63
2022-11-03T13:13:07.077Z,-63
2022-11-03T13:13:54.582Z,-63
2022-11-03T13:14:45.960Z,-65
2022-11-03T13:15:35.967Z,-64
2022-11-03T13:16:23.332Z,-63
2022-11-03T13:17:10.644Z,-64
2022-11-03T13:18:14.234Z,-66
2022-11-03T13:18:55.803Z,-64
2022-11-03T13:19:43.116Z,-64
2022-11-03T13:20:30.683Z,-63
2022-11-03T13:21:18.018Z,-62
2022-11-03T13:22:05.425Z,-64
2022-11-03T13:22:52.731Z,-64
2022-11-03T13:23:40.033Z,-62
2022-11-03T13:24:27.352Z,-65
2022-11-03T13:25:14.746Z,-62
2022-11-03T13:26:02.246Z,-64
2022-11-03T13:26:49.666Z,-65
2022-11-03T13:27:37.032Z,-63
2022-11-03T13:28:24.383Z,-62
2022-11-03T13:29:11.700Z,-61
2022-11-03T13:29:59.115Z,-62
2022-11-03T13:30:46.413Z,-60
2022-11-03T13:31:33.716Z,-61
2022-11-03T13:32:21.100Z,-62
2022-11-03T13:33:08.867Z,-62
2022-11-03T13:33:56.442Z,-61
2022-11-03T13:34:43.925Z,-62
2022-11-03T13:35:31.278Z,-63
2022-11-03T13:36:18.674Z,-64
2022-11-03T13:37:06.039Z,-61
2022-11-03T13:37:53.364Z,-63
2022-11-03T13:38:40.702Z,-63
2022-11-03T13:39:28.164Z,-63
2022-11-03T13:40:35.603Z,-61
2022-11-03T13:41:12.846Z,-62
2022-11-03T13:42:00.293Z,-61
2022-11-03T13:42:47.577Z,-61
2022-11-03T13:43:35.001Z,-62
2022-11-03T13:44:22.337Z,-62
2022-11-03T13:45:09.735Z,-63
2022-11-03T13:45:57.041Z,-61
2022-11-03T13:46:44.505Z,-61
2022-11-03T13:47:44.031Z,-62
2022-11-03T13:50:24.412Z,-61
2022-11-03T13:51:12.336Z,-64
2022-11-03T13:51:59.722Z,-60
2022-11-03T13:52:47.081Z,-59
2022-11-03T13:55:44.508Z,-62
2022-11-03T13:56:26.700Z,-62
2022-11-03T14:00:06.205Z,-62
2022-11-03T14:00:53.657Z,-64
2022-11-03T14:01:41.627Z,-62
2022-11-03T14:04:43.966Z,-62
2022-11-03T14:05:25.117Z,-64
2022-11-03T14:06:12.538Z,-66
2022-11-03T14:06:59.900Z,-64
2022-11-03T14:07:47.311Z,-63
2022-11-03T14:08:34.745Z,-61
2022-11-03T14:09:22.115Z,-61
2022-11-03T14:10:09.476Z,-64
2022-11-03T14:10:56.882Z,-61
2022-11-03T14:11:44.216Z,-62
2022-11-03T14:12:31.722Z,-63
2022-11-03T14:13:19.102Z,-60
2022-11-03T14:14:06.638Z,-62
2022-11-03T14:14:54.012Z,-62
2022-11-03T14:15:41.396Z,-62
2022-11-03T14:16:28.729Z,-63
2022-11-03T14:17:16.188Z,-61
2022-11-03T14:18:03.601Z,-62
2022-11-03T14:18:50.930Z,-62
2022-11-03T14:19:44.758Z,-66
2022-11-03T14:20:33.553Z,-63
2022-11-03T14:21:20.935Z,-63
2022-11-03T14:22:08.259Z,-64
2022-11-03T14:22:55.616Z,-64
2022-11-03T14:23:42.987Z,-65
2022-11-03T14:24:30.310Z,-64
2022-11-03T14:25:17.681Z,-62
2022-11-03T14:26:21.379Z,-61
2022-11-03T14:27:02.342Z,-62
2022-11-03T14:27:49.795Z,-60
2022-11-03T14:28:37.224Z,-65
2022-11-03T14:29:24.607Z,-63
2022-11-03T14:30:12.024Z,-63
2022-11-03T14:30:59.390Z,-64
2022-11-03T14:31:46.949Z,-64
2022-11-03T14:32:34.405Z,-61
2022-11-03T14:33:21.772Z,-63
2022-11-03T14:34:09.079Z,-62
2022-11-03T14:34:56.645Z,-65
2022-11-03T14:35:44.073Z,-64
2022-11-03T14:36:31.520Z,-63
2022-11-03T14:37:18.928Z,-63
2022-11-03T14:38:06.326Z,-64
2022-11-03T14:38:53.674Z,-63
2022-11-03T14:39:41.107Z,-62
2022-11-03T14:40:28.422Z,-64
2022-11-03T14:41:15.807Z,-63
2022-11-03T14:42:03.160Z,-63
2022-11-03T14:42:50.569Z,-61
2022-11-03T14:43:37.887Z,-62
2022-11-03T14:44:25.377Z,-60
2022-11-03T14:45:12.977Z,-61
2022-11-03T14:46:00.387Z,-62
2022-11-03T14:46:47.730Z,-62
2022-11-03T14:47:35.735Z,-63
2022-11-03T14:48:23.072Z,-62
2022-11-03T14:49:10.455Z,-63
2022-11-03T14:49:57.781Z,-61
2022-11-03T14:50:45.105Z,-65
2022-11-03T14:51:32.492Z,-63
2022-11-03T14:52:19.812Z,-61
2022-11-03T14:53:07.131Z,-61
2022-11-03T14:53:54.538Z,-62
2022-11-03T14:54:41.850Z,-60
2022-11-03T14:55:29.146Z,-61
2022-11-03T14:56:16.580Z,-61
2022-11-03T14:57:03.873Z,-65
2022-11-03T14:57:51.227Z,-63
2022-11-03T14:58:38.616Z,-60
2022-11-03T14:59:26.270Z,-61
2022-11-03T15:00:16.585Z,-62
2022-11-03T15:01:04.037Z,-64
2022-11-03T15:01:51.467Z,-62
2022-11-03T15:02:39.011Z,-62
2022-11-03T15:03:26.405Z,-62
2022-11-03T15:04:13.823Z,-62
2022-11-03T15:05:01.138Z,-65
2022-11-03T15:05:48.477Z,-60
2022-11-03T15:06:35.946Z,-61
2022-11-03T15:07:23.310Z,-62
2022-11-03T15:08:10.662Z,-62
2022-11-03T15:08:58.190Z,-62
2022-11-03T15:09:45.562Z,-62
2022-11-03T15:10:32.890Z,-63
2022-11-03T15:11:20.351Z,-64
2022-11-03T15:12:07.717Z,-62
2022-11-03T15:12:55.052Z,-61
2022-11-03T15:13:46.007Z,-62
2022-11-03T15:14:36.113Z,-65
2022-11-03T15:15:23.556Z,-65
2022-11-03T15:16:10.914Z,-61
2022-11-03T15:16:58.229Z,-65
2022-11-03T15:17:45.710Z,-62
2022-11-03T15:18:33.061Z,-61
2022-11-03T15:19:20.582Z,-62
2022-11-03T15:20:08.123Z,-61
2022-11-03T15:20:55.658Z,-62
2022-11-03T15:21:43.090Z,-62
2022-11-03T15:25:30.011Z,-60
2022-11-03T15:26:20.922Z,-60
2022-11-03T15:27:08.354Z,-61
2022-11-03T15:27:55.707Z,-61
2022-11-03T15:28:43.023Z,-63
2022-11-03T15:29:30.488Z,-59
2022-11-03T15:30:18.083Z,-61
2022-11-03T15:31:06.820Z,-63
2022-11-03T15:31:54.546Z,-61
2022-11-03T15:32:44.622Z,-60
2022-11-03T15:33:32.091Z,-64
2022-11-03T15:34:19.401Z,-62
2022-11-03T15:35:06.808Z,-61
2022-11-03T15:35:54.225Z,-61
2022-11-03T15:36:41.701Z,-61
2022-11-03T15:37:29.062Z,-62
2022-11-03T15:38:16.455Z,-61
2022-11-03T15:39:03.982Z,-63
2022-11-03T15:39:53.575Z,-63
2022-11-03T15:40:43.704Z,-61
2022-11-03T15:41:31.038Z,-60
2022-11-03T15:42:20.387Z,-60
2022-11-03T15:43:08.379Z,-61
2022-11-03T15:43:55.840Z,-61
2022-11-03T15:44:43.181Z,-61
2022-11-03T15:45:30.540Z,-62
2022-11-03T15:46:17.864Z,-63
2022-11-03T15:47:05.326Z,-62
2022-11-03T15:47:57.290Z,-60
2022-11-03T15:48:45.717Z,-62
2022-11-03T15:49:33.126Z,-65
2022-11-03T15:50:20.522Z,-63
2022-11-03T15:51:07.948Z,-65
2022-11-03T15:51:55.542Z,-65
2022-11-03T15:52:43.036Z,-65
2022-11-03T15:53:30.575Z,-63
2022-11-03T15:54:17.979Z,-63
2022-11-03T15:55:05.361Z,-63
2022-11-03T15:55:52.685Z,-64
2022-11-03T15:56:40.134Z,-60
2022-11-03T15:57:27.445Z,-65
2022-11-03T15:58:14.751Z,-61
2022-11-03T15:59:02.223Z,-64
2022-11-03T15:59:51.556Z,-61
2022-11-03T16:00:40.011Z,-62
2022-11-03T16:01:27.648Z,-64
2022-11-03T16:02:39.640Z,-61
2022-11-03T16:03:12.653Z,-60
2022-11-03T16:04:00.220Z,-61
2022-11-03T16:04:47.566Z,-61
2022-11-03T16:05:34.914Z,-60
2022-11-03T16:06:27.060Z,-60
2022-11-03T16:07:19.716Z,-62
2022-11-03T16:08:07.428Z,-63
2022-11-03T16:08:55.113Z,-64
2022-11-03T16:09:42.491Z,-62
2022-11-03T16:10:29.829Z,-63
2022-11-03T16:11:17.261Z,-62
2022-11-03T16:12:04.604Z,-63
2022-11-03T16:12:52.625Z,-61
2022-11-03T16:13:39.991Z,-65
2022-11-03T16:14:27.331Z,-65
2022-11-03T16:15:14.651Z,-66
2022-11-03T16:16:01.971Z,-65
2022-11-03T16:23:34.337Z,-66
2022-11-03T16:31:06.955Z,-66
2022-11-03T16:38:39.400Z,-62
2022-11-03T16:46:11.700Z,-62
2022-11-03T16:53:44.001Z,-61
2022-11-03T17:01:16.362Z,-62
2022-11-03T17:08:53.530Z,-62
2022-11-03T17:16:26.218Z,-60
2022-11-03T17:23:58.535Z,-62
2022-11-03T17:31:30.852Z,-61
2022-11-03T17:39:03.159Z,-61
2022-11-03T17:46:35.467Z,-60
2022-11-03T17:54:07.793Z,-60
2022-11-03T18:01:40.260Z,-60
2022-11-03T18:09:12.632Z,-61
2022-11-03T18:16:44.937Z,-61
2022-11-03T18:24:17.239Z,-60
2022-11-03T18:31:49.535Z,-60
2022-11-03T18:39:21.853Z,-62
2022-11-03T18:46:54.160Z,-66
2022-11-03T18:54:26.464Z,-60
2022-11-03T19:01:58.911Z,-60
2022-11-03T19:09:31.339Z,-59
2022-11-03T19:24:45.942Z,-60
2022-11-03T19:32:18.228Z,-65
2022-11-03T19:39:50.527Z,-61
2022-11-03T19:47:23.695Z,-60